createdAt,value
2019-05-22T00:02:11.881Z,66.10
2019-05-22T00:04:45.376Z,66.87
2019-05-22T00:07:15.941Z,63.40
2019-05-22T00:09:47.797Z,64.85
2019-05-22T00:12:19.335Z,62.98
2019-05-22T00:14:50.865Z,61.02
2019-05-22T00:17:25.839Z,59.73
2019-05-22T00:19:56.472Z,64.92
2019-05-22T00:22:28.374Z,63.05
2019-05-22T00:24:59.007Z,62.57
2019-05-22T00:27:30.982Z,59.75
2019-05-22T00:30:02.119Z,55.77
2019-05-22T00:32:33.996Z,54.55
2019-05-22T00:35:05.641Z,55.97
2019-05-22T00:37:36.098Z,54.60
2019-05-22T00:40:08.270Z,54.53
2019-05-22T00:42:40.707Z,57.83
2019-05-22T00:45:13.665Z,56.10
2019-05-22T00:47:44.407Z,60.65
2019-05-22T00:50:17.003Z,53.15
2019-05-22T00:52:51.786Z,54.20
2019-05-22T00:55:24.240Z,53.08
2019-05-22T00:57:56.563Z,51.80
2019-05-22T01:00:28.493Z,49.67
2019-05-22T01:03:00.403Z,48.43
2019-05-22T01:05:31.808Z,50.08
2019-05-22T01:08:04.123Z,46.30
2019-05-22T01:10:35.587Z,56.30
2019-05-22T01:13:07.432Z,51.53
2019-05-22T01:15:38.405Z,52.93
2019-05-22T01:18:13.500Z,52.53
2019-05-22T01:21:04.725Z,55.85
2019-05-22T01:23:36.598Z,52.33
2019-05-22T01:26:09.381Z,53.02
2019-05-22T01:31:10.973Z,50.52
2019-05-22T01:33:42.896Z,45.52
2019-05-22T01:36:17.207Z,52.07
2019-05-22T01:38:48.704Z,49.83
2019-05-22T01:41:34.079Z,53.28
2019-05-22T01:44:06.878Z,54.53
2019-05-22T01:49:12.713Z,48.33
2019-05-22T01:54:13.462Z,60.52
2019-05-22T01:56:43.590Z,57.08
2019-05-22T01:59:15.300Z,47.95
2019-05-22T02:01:47.155Z,55.65
2019-05-22T02:04:19.406Z,50.37
2019-05-22T02:06:51.289Z,50.65
2019-05-22T02:09:34.093Z,51.40
2019-05-22T02:12:09.059Z,49.08
2019-05-22T02:14:43.987Z,47.40
2019-05-22T02:17:15.861Z,48.25
2019-05-22T02:19:46.328Z,47.03
2019-05-22T02:22:17.271Z,47.33
2019-05-22T02:24:50.137Z,43.80
2019-05-22T02:29:52.200Z,48.63
2019-05-22T02:34:54.388Z,49.83
2019-05-22T02:37:24.651Z,55.92
2019-05-22T02:39:56.000Z,52.83
2019-05-22T02:42:28.914Z,58.90
2019-05-22T02:47:29.406Z,49.50
2019-05-22T02:49:59.953Z,53.25
2019-05-22T02:52:30.244Z,56.15
2019-05-22T02:55:00.512Z,52.20
2019-05-22T02:57:31.899Z,54.25
2019-05-22T03:00:03.173Z,55.65
2019-05-22T03:02:39.023Z,53.33
2019-05-22T03:05:11.264Z,55.63
2019-05-22T03:07:43.504Z,57.33
2019-05-22T03:10:14.521Z,52.55
2019-05-22T03:12:45.778Z,53.80
2019-05-22T03:15:18.260Z,57.58
2019-05-22T03:17:53.544Z,51.10
2019-05-22T03:20:24.367Z,49.38
2019-05-22T03:23:28.951Z,56.42
2019-05-22T03:25:59.420Z,55.17
2019-05-22T03:28:29.619Z,54.08
2019-05-22T03:31:00.483Z,59.63
2019-05-22T03:33:30.766Z,56.28
2019-05-22T03:36:09.602Z,49.98
2019-05-22T03:38:42.955Z,53.90
2019-05-22T03:41:13.805Z,58.13
2019-05-22T03:43:48.650Z,55.03
2019-05-22T03:46:25.181Z,58.80
2019-05-22T03:48:56.310Z,49.63
2019-05-22T03:51:26.685Z,57.70
2019-05-22T03:54:14.614Z,54.53
2019-05-22T03:56:47.999Z,47.58
2019-05-22T03:59:18.400Z,49.13
2019-05-22T04:01:48.780Z,50.15
2019-05-22T04:04:34.592Z,43.73
2019-05-22T04:07:06.535Z,48.10
2019-05-22T04:09:38.657Z,51.50
2019-05-22T04:12:10.873Z,49.70
2019-05-22T04:14:41.141Z,42.30
2019-05-22T04:17:13.257Z,47.65
2019-05-22T04:19:50.151Z,45.45
2019-05-22T04:22:18.420Z,48.73
2019-05-22T04:24:48.540Z,44.53
2019-05-22T04:27:20.485Z,49.03
2019-05-22T04:29:52.765Z,44.70
2019-05-22T04:32:27.690Z,45.70
2019-05-22T04:34:57.894Z,48.85
2019-05-22T04:37:29.629Z,50.52
2019-05-22T04:40:22.340Z,45.73
2019-05-22T04:42:53.116Z,45.03
2019-05-22T04:45:24.420Z,44.77
2019-05-22T04:48:02.763Z,44.00
2019-05-22T04:50:34.270Z,40.38
2019-05-22T04:53:05.223Z,45.63
2019-05-22T04:55:36.155Z,41.55
2019-05-22T04:58:08.450Z,46.18
2019-05-22T05:00:39.094Z,43.08
2019-05-22T05:03:11.064Z,44.73
2019-05-22T05:05:54.393Z,40.12
2019-05-22T05:08:24.970Z,40.90
2019-05-22T05:10:55.869Z,40.17
2019-05-22T05:13:27.569Z,42.27
2019-05-22T05:15:57.821Z,37.85
2019-05-22T05:18:28.026Z,46.08
2019-05-22T05:20:58.352Z,38.38
2019-05-22T05:23:31.447Z,39.33
2019-05-22T05:26:01.881Z,39.00
2019-05-22T05:28:33.518Z,35.78
2019-05-22T05:31:03.873Z,38.28
2019-05-22T05:33:37.645Z,37.33
2019-05-22T05:36:07.883Z,37.13
2019-05-22T05:38:39.658Z,35.78
2019-05-22T05:41:10.337Z,38.50
2019-05-22T05:43:40.429Z,34.05
2019-05-22T05:46:10.589Z,35.08
2019-05-22T05:48:40.656Z,34.38
2019-05-22T05:51:14.530Z,32.42
2019-05-22T05:53:59.967Z,33.53
2019-05-22T05:56:31.777Z,36.45
2019-05-22T05:59:03.494Z,34.60
2019-05-22T06:01:35.690Z,33.83
2019-05-22T06:04:06.600Z,38.63
2019-05-22T06:06:43.554Z,35.17
2019-05-22T06:09:16.853Z,32.23
2019-05-22T06:11:49.092Z,35.05
2019-05-22T06:14:22.530Z,34.73
2019-05-22T06:17:07.402Z,35.33
2019-05-22T06:19:43.741Z,30.00
2019-05-22T06:22:15.404Z,28.65
2019-05-22T06:24:52.297Z,30.60
2019-05-22T06:27:25.765Z,30.35
2019-05-22T06:30:05.150Z,31.95
2019-05-22T06:33:10.118Z,30.88
2019-05-22T06:35:40.658Z,30.45
2019-05-22T06:38:20.106Z,30.62
2019-05-22T06:40:51.465Z,28.50
2019-05-22T06:43:26.896Z,29.30
2019-05-22T06:45:57.442Z,30.23
2019-05-22T06:48:27.749Z,27.77
2019-05-22T06:50:58.227Z,23.25
2019-05-22T06:53:28.278Z,25.45
2019-05-22T06:55:58.522Z,26.15
2019-05-22T06:58:28.967Z,29.32
2019-05-22T07:00:59.903Z,25.10
2019-05-22T07:03:29.920Z,23.38
2019-05-22T07:06:01.292Z,24.90
2019-05-22T07:08:32.531Z,26.42
2019-05-22T07:11:03.011Z,26.97
2019-05-22T07:13:33.344Z,29.57
2019-05-22T07:16:03.890Z,22.10
2019-05-22T07:18:53.711Z,21.10
2019-05-22T07:21:33.661Z,26.27
2019-05-22T07:23:56.034Z,22.23
2019-05-22T07:26:26.751Z,22.32
2019-05-22T07:29:02.714Z,24.87
2019-05-22T07:31:30.879Z,26.70
2019-05-22T07:34:01.065Z,25.15
2019-05-22T07:36:33.311Z,40.38
2019-05-22T07:39:04.942Z,32.60
2019-05-22T07:41:35.900Z,24.37
2019-05-22T07:44:06.502Z,21.07
2019-05-22T07:46:37.141Z,20.00
2019-05-22T07:49:07.930Z,22.05
2019-05-22T07:51:51.818Z,19.23
2019-05-22T07:54:10.378Z,25.02
2019-05-22T07:56:41.853Z,21.30
2019-05-22T07:59:11.980Z,28.10
2019-05-22T08:01:42.065Z,28.02
2019-05-22T08:04:13.894Z,27.75
2019-05-22T08:06:45.517Z,27.58
2019-05-22T08:09:18.121Z,25.77
2019-05-22T08:11:48.780Z,26.25
2019-05-22T08:14:21.582Z,24.63
2019-05-22T08:19:22.026Z,23.80
2019-05-22T08:22:06.193Z,32.15
2019-05-22T08:24:24.997Z,23.90
2019-05-22T08:26:55.764Z,23.92
2019-05-22T08:29:26.203Z,24.30
2019-05-22T08:31:57.862Z,24.23
2019-05-22T08:34:27.956Z,27.60
2019-05-22T08:36:59.484Z,25.75
2019-05-22T08:39:29.734Z,25.05
2019-05-22T08:41:59.974Z,23.35
2019-05-22T08:44:32.420Z,21.80
2019-05-22T08:47:02.935Z,22.95
2019-05-22T08:49:33.725Z,20.95
2019-05-22T08:52:04.864Z,23.50
2019-05-22T08:54:35.631Z,20.52
2019-05-22T08:57:09.007Z,24.60
2019-05-22T08:59:39.319Z,22.75
2019-05-22T09:02:11.068Z,20.20
2019-05-22T09:04:41.528Z,26.57
2019-05-22T09:07:13.037Z,19.48
2019-05-22T09:09:43.119Z,20.12
2019-05-22T09:12:14.978Z,16.17
2019-05-22T09:14:45.643Z,19.37
2019-05-22T09:17:16.188Z,18.57
2019-05-22T09:19:46.470Z,19.57
2019-05-22T09:22:16.569Z,17.02
2019-05-22T09:24:48.027Z,20.32
2019-05-22T09:27:18.739Z,18.82
2019-05-22T09:29:49.031Z,18.87
2019-05-22T09:32:23.438Z,15.70
2019-05-22T09:34:54.593Z,17.57
2019-05-22T09:37:26.031Z,19.52
2019-05-22T09:39:56.310Z,16.65
2019-05-22T09:42:28.408Z,15.95
2019-05-22T09:44:58.343Z,16.95
2019-05-22T09:47:28.415Z,16.57
2019-05-22T09:49:58.916Z,14.70
2019-05-22T09:52:30.290Z,16.77
2019-05-22T09:55:01.873Z,16.55
2019-05-22T09:57:32.381Z,14.15
2019-05-22T10:00:02.775Z,18.50
2019-05-22T10:02:33.193Z,19.37
2019-05-22T10:05:03.821Z,18.37
2019-05-22T10:07:34.940Z,18.25
2019-05-22T10:10:07.155Z,17.50
2019-05-22T10:12:38.555Z,14.50
2019-05-22T10:15:11.226Z,16.50
2019-05-22T10:17:49.734Z,15.50
2019-05-22T10:20:39.696Z,12.98
2019-05-22T10:23:15.979Z,15.72
2019-05-22T10:25:46.240Z,15.28
2019-05-22T10:28:16.783Z,15.88
2019-05-22T10:30:47.528Z,16.57
2019-05-22T10:33:24.681Z,16.10
2019-05-22T10:35:55.213Z,17.67
2019-05-22T10:38:25.617Z,18.42
2019-05-22T10:40:58.853Z,14.28
2019-05-22T10:43:29.745Z,16.45
2019-05-22T10:45:59.858Z,21.52
2019-05-22T10:48:30.208Z,18.92
2019-05-22T10:51:00.336Z,17.90
2019-05-22T10:53:34.002Z,15.85
2019-05-22T10:56:03.085Z,18.62
2019-05-22T10:58:33.433Z,18.17
2019-05-22T11:01:03.993Z,16.40
2019-05-22T11:03:37.569Z,20.35
2019-05-22T11:06:08.521Z,15.05
2019-05-22T11:08:40.148Z,15.38
2019-05-22T11:11:10.104Z,16.40
2019-05-22T11:13:40.890Z,19.80
2019-05-22T11:16:13.345Z,13.55
2019-05-22T11:18:44.219Z,13.22
2019-05-22T11:21:15.566Z,14.50
2019-05-22T11:23:52.121Z,15.13
2019-05-22T11:26:18.299Z,10.25
2019-05-22T11:28:48.834Z,14.03
2019-05-22T11:31:19.291Z,32.40
2019-05-22T11:33:49.585Z,16.30
2019-05-22T11:36:20.182Z,18.65
2019-05-22T11:38:50.546Z,12.33
2019-05-22T11:41:20.997Z,13.38
2019-05-22T11:43:51.902Z,18.32
2019-05-22T11:46:22.179Z,16.10
2019-05-22T11:48:52.575Z,14.55
2019-05-22T11:51:23.197Z,12.95
2019-05-22T11:54:08.077Z,17.37
2019-05-22T11:56:25.436Z,13.88
2019-05-22T11:58:55.609Z,19.75
2019-05-22T12:01:25.668Z,16.50
2019-05-22T12:03:55.974Z,13.20
2019-05-22T12:06:26.978Z,8.83
2019-05-22T12:08:57.736Z,13.68
2019-05-22T12:11:28.512Z,13.05
2019-05-22T12:13:59.155Z,11.95
2019-05-22T12:16:30.275Z,10.38
2019-05-22T12:19:01.119Z,8.85
2019-05-22T12:21:32.154Z,7.95
2019-05-22T12:24:02.698Z,9.90
2019-05-22T12:26:32.823Z,10.35
2019-05-22T12:29:03.456Z,7.30
2019-05-22T12:31:34.027Z,8.65
2019-05-22T12:34:05.099Z,6.17
2019-05-22T12:36:35.741Z,5.80
2019-05-22T12:39:08.482Z,5.55
2019-05-22T12:41:38.752Z,6.28
2019-05-22T12:44:09.840Z,6.03
2019-05-22T12:46:40.861Z,8.28
2019-05-22T12:49:11.984Z,5.97
2019-05-22T12:51:42.336Z,6.05
2019-05-22T12:54:12.707Z,7.25
2019-05-22T12:56:44.226Z,6.50
2019-05-22T12:59:14.956Z,5.62
2019-05-22T13:01:47.593Z,6.75
2019-05-22T13:04:18.164Z,5.70
2019-05-22T13:06:48.589Z,6.92
2019-05-22T13:09:19.302Z,12.15
2019-05-22T13:11:49.753Z,12.50
2019-05-22T13:14:19.792Z,10.75
2019-05-22T13:16:50.523Z,11.05
2019-05-22T13:19:26.807Z,15.50
2019-05-22T13:22:17.340Z,15.58
2019-05-22T13:24:52.056Z,12.50
2019-05-22T13:27:23.834Z,13.00
2019-05-22T13:29:56.196Z,11.97
2019-05-22T13:32:28.829Z,11.53
2019-05-22T13:37:28.413Z,12.73
2019-05-22T13:39:58.814Z,11.38
2019-05-22T13:42:29.386Z,14.75
2019-05-22T13:45:00.368Z,16.05
2019-05-22T13:47:30.723Z,14.80
2019-05-22T13:50:02.206Z,13.70
2019-05-22T13:52:34.787Z,13.62
2019-05-22T13:55:08.221Z,13.85
2019-05-22T13:57:39.188Z,12.58
2019-05-22T14:00:15.676Z,11.70
2019-05-22T14:02:51.144Z,10.00
2019-05-22T14:05:22.078Z,11.35
2019-05-22T14:07:56.713Z,11.57
2019-05-22T14:10:27.994Z,10.23
2019-05-22T14:12:58.392Z,11.35
2019-05-22T14:15:48.310Z,11.55
2019-05-22T14:20:30.594Z,11.28
2019-05-22T14:23:00.805Z,8.75
2019-05-22T14:25:32.602Z,12.07
2019-05-22T14:28:03.193Z,13.55
2019-05-22T14:30:34.050Z,9.13
2019-05-22T14:33:06.784Z,8.28
2019-05-22T14:35:48.136Z,8.95
2019-05-22T14:38:11.282Z,8.08
2019-05-22T14:40:41.750Z,8.58
2019-05-22T14:43:12.766Z,6.97
2019-05-22T14:45:43.812Z,6.70
2019-05-22T14:48:14.759Z,4.75
2019-05-22T14:50:45.213Z,4.35
2019-05-22T14:53:16.759Z,5.70
2019-05-22T14:55:47.438Z,3.93
2019-05-22T14:58:17.850Z,6.67
2019-05-22T15:00:48.713Z,5.33
2019-05-22T15:03:19.791Z,3.35
2019-05-22T15:05:50.620Z,4.60
2019-05-22T15:08:20.890Z,3.27
2019-05-22T15:10:52.204Z,6.85
2019-05-22T15:13:31.083Z,4.75
2019-05-22T15:16:01.287Z,3.80
2019-05-22T15:18:31.715Z,5.15
2019-05-22T15:21:02.690Z,5.15
2019-05-22T15:23:35.103Z,3.65
2019-05-22T15:26:05.373Z,3.42
2019-05-22T15:28:35.716Z,4.12
2019-05-22T15:31:06.346Z,6.90
2019-05-22T15:33:37.571Z,3.52
2019-05-22T15:36:10.869Z,4.40
2019-05-22T15:38:44.071Z,4.80
2019-05-22T15:41:14.789Z,9.78
2019-05-22T15:43:51.002Z,4.80
2019-05-22T15:46:18.845Z,5.42
2019-05-22T15:48:51.848Z,4.20
2019-05-22T15:51:26.358Z,4.65
2019-05-22T15:53:59.851Z,4.80
2019-05-22T15:56:34.190Z,5.90
2019-05-22T15:59:08.767Z,6.42
2019-05-22T16:01:40.107Z,3.50
2019-05-22T16:04:12.455Z,3.67
2019-05-22T16:09:15.536Z,6.12
2019-05-22T16:11:48.735Z,5.87
2019-05-22T16:14:19.446Z,33.78
2019-05-22T16:16:51.461Z,10.23
2019-05-22T16:19:26.721Z,4.87
2019-05-22T16:22:16.528Z,5.25
2019-05-22T16:24:50.999Z,4.97
2019-05-22T16:27:21.543Z,3.65
2019-05-22T16:29:53.223Z,4.67
2019-05-22T16:32:24.856Z,4.10
2019-05-22T16:34:55.818Z,5.03
2019-05-22T16:37:26.828Z,5.67
2019-05-22T16:39:57.362Z,3.80
2019-05-22T16:42:28.563Z,6.33
2019-05-22T16:44:59.184Z,3.70
2019-05-22T16:47:32.925Z,6.20
2019-05-22T16:50:02.194Z,3.92
2019-05-22T16:52:33.057Z,5.20
2019-05-22T16:55:03.578Z,5.22
2019-05-22T16:57:34.261Z,5.50
2019-05-22T17:00:06.475Z,6.33
2019-05-22T17:02:38.046Z,5.33
2019-05-22T17:05:11.274Z,5.33
2019-05-22T17:07:42.903Z,5.78
2019-05-22T17:10:14.994Z,10.03
2019-05-22T17:12:46.317Z,6.22
2019-05-22T17:15:18.525Z,5.20
2019-05-22T17:17:49.191Z,5.67
2019-05-22T17:20:21.741Z,6.90
2019-05-22T17:22:52.263Z,5.95
2019-05-22T17:25:22.851Z,6.90
2019-05-22T17:27:52.834Z,8.10
2019-05-22T17:30:26.706Z,5.53
2019-05-22T17:32:59.469Z,5.85
2019-05-22T17:35:31.037Z,8.25
2019-05-22T17:38:01.383Z,7.90
2019-05-22T17:40:34.671Z,8.65
2019-05-22T17:43:34.965Z,8.40
2019-05-22T17:46:17.638Z,9.45
2019-05-22T17:48:49.759Z,9.60
2019-05-22T17:51:20.567Z,11.50
2019-05-22T17:53:51.148Z,10.98
2019-05-22T17:56:30.298Z,10.98
2019-05-22T17:59:01.361Z,10.65
2019-05-22T18:01:32.269Z,10.03
2019-05-22T18:04:02.559Z,10.03
2019-05-22T18:06:33.072Z,10.80
2019-05-22T18:09:05.050Z,9.00
2019-05-22T18:11:35.430Z,11.33
2019-05-22T18:14:25.140Z,10.70
2019-05-22T18:16:57.355Z,11.10
2019-05-22T18:19:28.376Z,10.08
2019-05-22T18:22:03.331Z,10.93
2019-05-22T18:24:45.549Z,13.58
2019-05-22T18:27:19.406Z,10.80
2019-05-22T18:29:49.717Z,11.60
2019-05-22T18:32:21.492Z,11.08
2019-05-22T18:34:52.302Z,13.13
2019-05-22T18:37:23.133Z,10.48
2019-05-22T18:39:53.796Z,8.73
2019-05-22T18:42:28.863Z,10.90
2019-05-22T18:44:59.233Z,10.43
2019-05-22T18:47:29.853Z,8.75
2019-05-22T18:50:00.370Z,8.53
2019-05-22T18:52:40.421Z,9.20
2019-05-22T18:55:03.895Z,13.95
2019-05-22T18:57:35.475Z,11.85
2019-05-22T19:00:09.585Z,11.48
2019-05-22T19:02:41.693Z,8.75
2019-05-22T19:05:12.436Z,10.13
2019-05-22T19:07:43.189Z,9.23
2019-05-22T19:10:14.890Z,11.45
2019-05-22T19:12:45.527Z,19.90
2019-05-22T19:15:17.164Z,14.00
2019-05-22T19:17:47.583Z,9.38
2019-05-22T19:20:18.213Z,10.32
2019-05-22T19:22:59.471Z,9.30
2019-05-22T19:25:20.618Z,7.58
2019-05-22T19:27:50.982Z,11.93
2019-05-22T19:30:59.981Z,9.35
2019-05-22T19:33:37.461Z,9.10
2019-05-22T19:36:09.254Z,10.30
2019-05-22T19:38:39.595Z,9.98
2019-05-22T19:41:32.836Z,12.45
2019-05-22T19:44:00.235Z,13.20
2019-05-22T19:46:31.992Z,11.55
2019-05-22T19:49:02.360Z,13.93
2019-05-22T19:51:32.910Z,12.30
2019-05-22T19:54:03.064Z,11.78
2019-05-22T19:56:33.560Z,13.00
2019-05-22T19:59:04.862Z,12.35
2019-05-22T20:01:35.275Z,9.38
2019-05-22T20:04:06.191Z,11.05
2019-05-22T20:06:38.445Z,11.33
2019-05-22T20:09:12.005Z,10.93
2019-05-22T20:11:42.713Z,9.90
2019-05-22T20:14:13.901Z,13.03
2019-05-22T20:16:44.348Z,12.15
2019-05-22T20:19:14.729Z,10.75
2019-05-22T20:21:45.250Z,11.20
2019-05-22T20:24:16.124Z,12.00
2019-05-22T20:26:47.559Z,13.33
2019-05-22T20:29:18.458Z,14.13
2019-05-22T20:31:48.473Z,13.90
2019-05-22T20:34:18.629Z,9.90
2019-05-22T20:36:48.763Z,13.68
2019-05-22T20:39:20.828Z,14.45
2019-05-22T20:41:52.261Z,11.40
2019-05-22T20:44:23.096Z,10.43
2019-05-22T20:46:54.368Z,11.97
2019-05-22T20:49:24.586Z,9.78
2019-05-22T20:51:54.858Z,12.23
2019-05-22T20:54:26.980Z,12.95
2019-05-22T20:56:59.024Z,12.10
2019-05-22T20:59:31.721Z,14.75
2019-05-22T21:04:33.588Z,11.55
2019-05-22T21:07:07.402Z,14.73
2019-05-22T21:09:37.980Z,14.95
2019-05-22T21:12:09.106Z,14.30
2019-05-22T21:14:39.197Z,13.28
2019-05-22T21:17:09.859Z,15.43
2019-05-22T21:19:41.859Z,17.50
2019-05-22T21:22:14.360Z,37.55
2019-05-22T21:24:45.877Z,40.00
2019-05-22T21:27:16.760Z,34.27
2019-05-22T21:29:46.881Z,35.28
2019-05-22T21:32:17.128Z,22.10
2019-05-22T21:34:47.565Z,19.75
2019-05-22T21:37:19.014Z,16.35
2019-05-22T21:39:50.118Z,21.80
2019-05-22T21:42:20.907Z,23.90
2019-05-22T21:44:51.216Z,20.20
2019-05-22T21:47:21.956Z,21.57
2019-05-22T21:49:52.697Z,17.30
2019-05-22T21:52:22.842Z,21.37
2019-05-22T21:54:53.145Z,15.10
2019-05-22T21:57:23.545Z,23.77
2019-05-22T21:59:53.815Z,38.35
2019-05-22T22:02:28.678Z,21.85
2019-05-22T22:04:58.903Z,24.10
2019-05-22T22:07:29.934Z,18.32
2019-05-22T22:10:00.405Z,20.32
2019-05-22T22:12:31.177Z,15.90
2019-05-22T22:15:01.038Z,22.25
2019-05-22T22:17:32.411Z,16.93
2019-05-22T22:20:03.480Z,18.80
2019-05-22T22:22:34.506Z,17.85
2019-05-22T22:25:08.375Z,18.15
2019-05-22T22:27:39.124Z,18.17
2019-05-22T22:30:15.892Z,20.95
2019-05-22T22:32:46.207Z,18.10
2019-05-22T22:38:40.062Z,18.75
2019-05-22T22:41:12.407Z,20.75
2019-05-22T22:43:45.222Z,18.80
2019-05-22T22:46:20.182Z,16.07
2019-05-22T22:48:51.784Z,14.87
2019-05-22T22:51:22.864Z,18.65
2019-05-22T22:53:53.659Z,18.65
2019-05-22T22:56:25.578Z,19.98
2019-05-22T22:58:56.335Z,16.95
2019-05-22T23:01:30.596Z,18.45
2019-05-22T23:04:03.763Z,18.92
2019-05-22T23:06:36.329Z,17.27
2019-05-22T23:09:08.202Z,16.23
2019-05-22T23:11:42.018Z,22.53
2019-05-22T23:14:12.929Z,15.70
2019-05-22T23:16:43.184Z,15.15
2019-05-22T23:19:17.024Z,21.27
2019-05-22T23:21:47.525Z,18.80
2019-05-22T23:24:20.086Z,19.67
2019-05-22T23:26:51.977Z,15.48
2019-05-22T23:29:22.949Z,18.90
2019-05-22T23:31:55.772Z,19.50
2019-05-22T23:34:26.848Z,16.37
2019-05-22T23:36:57.357Z,16.95
2019-05-22T23:39:30.593Z,16.40
2019-05-22T23:42:04.673Z,20.72
2019-05-22T23:44:36.931Z,19.10
2019-05-22T23:47:08.191Z,17.67
2019-05-22T23:49:39.795Z,17.77
2019-05-22T23:52:10.602Z,21.62
2019-05-22T23:54:41.650Z,17.92
2019-05-22T23:57:13.417Z,17.42
2019-05-22T23:59:46.042Z,19.55
